Airfield :
LOGIN :

Register | Disclaimer

   EN    FR    IT 

 










Legend :    VFR   Marginal VFR   IFR   Intensive IFR   Very Intensive IFR
Visi :
Ceiling :
>= 8 km
>= 3000ft
5 to 8 km
1000 to 3000 ft
1500m to 5 km
500 to 1000 ft
800 to 1500m
200 to 500 ft
< 800m
< 200 ft
Symbols :   Thunderstorms  Fog  Heavy snow  Heavy precipitations  Wind > 20 kt
SIGMETs :     Misc.  Thunderstorms  Icing  Turbulence  Mountain Waves  Volcanic Ashes






- Airport Elevation : 529 ft
- IATA code : CHR


LFLX - Chateauroux

CURRENT METAR :
  • 281430Z AUTO 24015KT 9999 -RA FEW023/// SCT029/// BKN036/// ///TCU 14/11 Q1016 TEMPO 24020G30KT 3000 -SHRA SCT025CB

EXPIRED METARs :
  • 281400Z AUTO 23016KT 9999 BKN034/// BKN048/// BKN064/// ///TCU 15/09 Q1015 TEMPO 24020G30KT 3000 -SHRA SCT025CB
  • 281330Z AUTO 23017KT 9999 BKN034/// BKN047/// BKN056/// ///CB 15/09 Q1016 TEMPO 24020G30KT 3000 -SHRA BKN014 SCT030TCU
  • 281230Z AUTO 22018KT 9999 FEW026 BKN033 OVC180 16/09 Q1016 TEMPO 24020G30KT 3000 -SHRA BKN014 SCT030TCU
  • 281200Z AUTO 23014KT 9999 BKN025 BKN033 BKN076 16/10 Q1016 TEMPO 24020G30KT 3000 -SHRA BKN014 SCT030TCU

TAF AMD TAF LFLX
Valid from the 28 at 13:00 until the 29 at 18:00 UTC


281343Z 2813/2918 24015KT 9999 BKN030
TEMPO 2813/2822 24020G30KT 3000 -SHRA BKN014 SCT030TCU
PROB30
TEMPO 2813/2822 SCT025CB
PROB40
TEMPO 2822/2908 3000 -SHRA BKN009 SCT020TCU



MET'MAP, your aeronautical weather chart ! - Copyright ORBIFLY December 2007 - Disclaimer

ORBIFLY MET'MAP TEAM :

Programming & Development : Alexandra Zaïnal
Concept & original design : Baudouin d'Aumeries
Assistance for programming : Marc-Olivier Méhu
Technical & hardware support : Manuel Goepfert

Contact : metmap@orbifly.com




SOURCES & CREDITS :

   NOAA